sensor_id;sensor_type;location;lat;lon;timestamp;P1;durP1;ratioP1;P2;durP2;ratioP2
55672;SDS011;41554;45.366;20.400;2024-02-04T00:01:47;9.77;;;7.40;;
55672;SDS011;41554;45.366;20.400;2024-02-04T00:04:13;8.55;;;7.65;;
55672;SDS011;41554;45.366;20.400;2024-02-04T00:06:39;13.45;;;8.85;;
55672;SDS011;41554;45.366;20.400;2024-02-04T00:09:05;11.35;;;7.85;;
55672;SDS011;41554;45.366;20.400;2024-02-04T00:11:31;13.15;;;8.75;;
55672;SDS011;41554;45.366;20.400;2024-02-04T00:13:59;21.00;;;9.40;;
55672;SDS011;41554;45.366;20.400;2024-02-04T00:16:25;9.30;;;8.23;;
55672;SDS011;41554;45.366;20.400;2024-02-04T00:18:52;13.25;;;8.68;;
55672;SDS011;41554;45.366;20.400;2024-02-04T00:21:18;17.02;;;9.25;;
55672;SDS011;41554;45.366;20.400;2024-02-04T00:23:44;14.07;;;9.38;;
55672;SDS011;41554;45.366;20.400;2024-02-04T00:26:10;18.58;;;10.85;;
55672;SDS011;41554;45.366;20.400;2024-02-04T00:28:36;15.10;;;9.25;;
55672;SDS011;41554;45.366;20.400;2024-02-04T00:31:02;11.30;;;9.60;;
55672;SDS011;41554;45.366;20.400;2024-02-04T00:33:28;16.23;;;8.00;;
55672;SDS011;41554;45.366;20.400;2024-02-04T00:35:54;11.05;;;8.05;;
55672;SDS011;41554;45.366;20.400;2024-02-04T00:38:20;9.30;;;7.60;;
55672;SDS011;41554;45.366;20.400;2024-02-04T00:40:46;14.73;;;8.93;;
55672;SDS011;41554;45.366;20.400;2024-02-04T00:43:12;9.50;;;7.07;;
55672;SDS011;41554;45.366;20.400;2024-02-04T00:45:38;8.57;;;5.53;;
55672;SDS011;41554;45.366;20.400;2024-02-04T00:48:05;11.80;;;6.55;;
55672;SDS011;41554;45.366;20.400;2024-02-04T00:50:31;11.50;;;6.90;;
55672;SDS011;41554;45.366;20.400;2024-02-04T00:52:57;15.93;;;8.88;;
55672;SDS011;41554;45.366;20.400;2024-02-04T00:55:23;12.35;;;7.82;;
55672;SDS011;41554;45.366;20.400;2024-02-04T00:57:49;7.82;;;5.63;;
55672;SDS011;41554;45.366;20.400;2024-02-04T01:00:15;11.30;;;8.18;;
55672;SDS011;41554;45.366;20.400;2024-02-04T01:02:41;13.45;;;8.40;;
55672;SDS011;41554;45.366;20.400;2024-02-04T01:05:07;11.13;;;7.43;;
55672;SDS011;41554;45.366;20.400;2024-02-04T01:07:33;9.20;;;7.40;;
55672;SDS011;41554;45.366;20.400;2024-02-04T01:09:59;10.32;;;7.15;;
55672;SDS011;41554;45.366;20.400;2024-02-04T01:12:26;10.13;;;6.60;;
55672;SDS011;41554;45.366;20.400;2024-02-04T01:14:52;8.73;;;6.20;;
55672;SDS011;41554;45.366;20.400;2024-02-04T01:17:18;13.43;;;7.60;;
55672;SDS011;41554;45.366;20.400;2024-02-04T01:19:44;9.85;;;8.23;;
55672;SDS011;41554;45.366;20.400;2024-02-04T01:22:10;10.98;;;7.93;;
55672;SDS011;41554;45.366;20.400;2024-02-04T01:24:36;13.57;;;9.23;;
55672;SDS011;41554;45.366;20.400;2024-02-04T01:27:02;11.23;;;7.70;;
55672;SDS011;41554;45.366;20.400;2024-02-04T01:29:28;12.45;;;8.07;;
55672;SDS011;41554;45.366;20.400;2024-02-04T01:31:54;11.40;;;7.50;;
55672;SDS011;41554;45.366;20.400;2024-02-04T01:34:20;12.13;;;6.72;;
55672;SDS011;41554;45.366;20.400;2024-02-04T01:36:47;10.57;;;6.78;;
55672;SDS011;41554;45.366;20.400;2024-02-04T01:39:13;13.68;;;7.68;;
55672;SDS011;41554;45.366;20.400;2024-02-04T01:41:39;9.25;;;6.85;;
55672;SDS011;41554;45.366;20.400;2024-02-04T01:44:05;12.20;;;7.72;;
55672;SDS011;41554;45.366;20.400;2024-02-04T01:46:31;10.90;;;7.15;;
55672;SDS011;41554;45.366;20.400;2024-02-04T01:48:58;12.80;;;8.70;;
55672;SDS011;41554;45.366;20.400;2024-02-04T01:51:24;12.32;;;7.45;;
55672;SDS011;41554;45.366;20.400;2024-02-04T01:53:50;10.50;;;6.63;;
55672;SDS011;41554;45.366;20.400;2024-02-04T01:56:16;10.70;;;7.72;;
55672;SDS011;41554;45.366;20.400;2024-02-04T01:58:43;11.30;;;6.85;;
55672;SDS011;41554;45.366;20.400;2024-02-04T02:01:09;12.10;;;6.60;;
55672;SDS011;41554;45.366;20.400;2024-02-04T02:03:35;9.07;;;6.85;;
55672;SDS011;41554;45.366;20.400;2024-02-04T02:06:01;9.45;;;7.65;;
55672;SDS011;41554;45.366;20.400;2024-02-04T02:08:28;9.88;;;6.75;;
55672;SDS011;41554;45.366;20.400;2024-02-04T02:11:02;8.52;;;6.28;;
55672;SDS011;41554;45.366;20.400;2024-02-04T02:13:30;8.88;;;6.35;;
55672;SDS011;41554;45.366;20.400;2024-02-04T02:16:11;8.95;;;6.32;;
55672;SDS011;41554;45.366;20.400;2024-02-04T02:18:52;8.15;;;6.38;;
55672;SDS011;41554;45.366;20.400;2024-02-04T02:21:24;8.32;;;6.57;;
55672;SDS011;41554;45.366;20.400;2024-02-04T02:26:20;8.25;;;5.60;;
55672;SDS011;41554;45.366;20.400;2024-02-04T02:28:46;11.02;;;7.00;;
55672;SDS011;41554;45.366;20.400;2024-02-04T02:31:12;8.48;;;6.10;;
55672;SDS011;41554;45.366;20.400;2024-02-04T02:33:38;10.13;;;6.32;;
55672;SDS011;41554;45.366;20.400;2024-02-04T02:36:06;9.50;;;6.50;;
55672;SDS011;41554;45.366;20.400;2024-02-04T02:38:58;10.32;;;6.90;;
55672;SDS011;41554;45.366;20.400;2024-02-04T02:41:29;7.53;;;6.65;;
55672;SDS011;41554;45.366;20.400;2024-02-04T02:43:56;5.90;;;4.70;;
55672;SDS011;41554;45.366;20.400;2024-02-04T02:46:22;10.23;;;6.60;;
55672;SDS011;41554;45.366;20.400;2024-02-04T02:48:49;6.97;;;6.13;;
55672;SDS011;41554;45.366;20.400;2024-02-04T02:51:15;10.73;;;6.05;;
55672;SDS011;41554;45.366;20.400;2024-02-04T02:53:42;12.13;;;6.40;;
55672;SDS011;41554;45.366;20.400;2024-02-04T02:56:08;9.25;;;5.97;;
55672;SDS011;41554;45.366;20.400;2024-02-04T02:58:34;15.43;;;6.75;;
55672;SDS011;41554;45.366;20.400;2024-02-04T03:01:00;13.60;;;7.07;;
55672;SDS011;41554;45.366;20.400;2024-02-04T03:03:26;15.45;;;9.40;;
55672;SDS011;41554;45.366;20.400;2024-02-04T03:05:52;10.40;;;6.82;;
55672;SDS011;41554;45.366;20.400;2024-02-04T03:08:18;8.65;;;6.75;;
55672;SDS011;41554;45.366;20.400;2024-02-04T03:10:44;8.65;;;6.32;;
55672;SDS011;41554;45.366;20.400;2024-02-04T03:13:10;19.63;;;7.45;;
55672;SDS011;41554;45.366;20.400;2024-02-04T03:15:36;9.75;;;5.88;;
55672;SDS011;41554;45.366;20.400;2024-02-04T03:18:02;9.38;;;6.85;;
55672;SDS011;41554;45.366;20.400;2024-02-04T03:20:28;7.97;;;5.95;;
55672;SDS011;41554;45.366;20.400;2024-02-04T03:22:55;9.40;;;5.97;;
55672;SDS011;41554;45.366;20.400;2024-02-04T03:25:21;10.07;;;7.40;;
55672;SDS011;41554;45.366;20.400;2024-02-04T03:27:51;14.85;;;7.57;;
55672;SDS011;41554;45.366;20.400;2024-02-04T03:30:18;9.38;;;5.32;;
55672;SDS011;41554;45.366;20.400;2024-02-04T03:32:44;9.90;;;6.63;;
55672;SDS011;41554;45.366;20.400;2024-02-04T03:35:10;9.48;;;6.18;;
55672;SDS011;41554;45.366;20.400;2024-02-04T03:37:36;11.93;;;6.50;;
55672;SDS011;41554;45.366;20.400;2024-02-04T03:40:02;7.80;;;5.80;;
55672;SDS011;41554;45.366;20.400;2024-02-04T03:42:28;9.23;;;5.75;;
55672;SDS011;41554;45.366;20.400;2024-02-04T03:44:55;11.45;;;6.75;;
55672;SDS011;41554;45.366;20.400;2024-02-04T03:47:21;8.30;;;6.10;;
55672;SDS011;41554;45.366;20.400;2024-02-04T03:49:47;10.70;;;5.72;;
55672;SDS011;41554;45.366;20.400;2024-02-04T03:52:13;9.85;;;6.00;;
55672;SDS011;41554;45.366;20.400;2024-02-04T03:54:39;8.75;;;5.57;;
55672;SDS011;41554;45.366;20.400;2024-02-04T03:57:05;11.30;;;6.63;;
55672;SDS011;41554;45.366;20.400;2024-02-04T03:59:32;11.23;;;7.68;;
55672;SDS011;41554;45.366;20.400;2024-02-04T04:01:58;8.00;;;5.75;;
55672;SDS011;41554;45.366;20.400;2024-02-04T04:04:24;11.90;;;6.50;;
55672;SDS011;41554;45.366;20.400;2024-02-04T04:06:51;9.43;;;6.32;;
55672;SDS011;41554;45.366;20.400;2024-02-04T04:09:17;10.57;;;6.35;;
55672;SDS011;41554;45.366;20.400;2024-02-04T04:11:43;10.80;;;7.30;;
55672;SDS011;41554;45.366;20.400;2024-02-04T04:14:09;16.55;;;7.63;;
55672;SDS011;41554;45.366;20.400;2024-02-04T04:16:35;8.57;;;6.20;;
55672;SDS011;41554;45.366;20.400;2024-02-04T04:19:01;8.23;;;7.22;;
55672;SDS011;41554;45.366;20.400;2024-02-04T04:21:27;11.82;;;7.40;;
55672;SDS011;41554;45.366;20.400;2024-02-04T04:23:53;11.27;;;6.50;;
55672;SDS011;41554;45.366;20.400;2024-02-04T04:26:20;8.77;;;6.38;;
55672;SDS011;41554;45.366;20.400;2024-02-04T04:28:46;13.25;;;7.03;;
55672;SDS011;41554;45.366;20.400;2024-02-04T04:31:12;8.85;;;6.95;;
55672;SDS011;41554;45.366;20.400;2024-02-04T04:33:38;11.07;;;6.65;;
55672;SDS011;41554;45.366;20.400;2024-02-04T04:36:04;7.63;;;5.32;;
55672;SDS011;41554;45.366;20.400;2024-02-04T04:38:30;9.18;;;6.13;;
55672;SDS011;41554;45.366;20.400;2024-02-04T04:40:56;8.45;;;6.03;;
55672;SDS011;41554;45.366;20.400;2024-02-04T04:43:22;6.63;;;5.22;;
55672;SDS011;41554;45.366;20.400;2024-02-04T04:45:48;8.77;;;6.38;;
55672;SDS011;41554;45.366;20.400;2024-02-04T04:48:15;8.90;;;5.68;;
55672;SDS011;41554;45.366;20.400;2024-02-04T04:50:41;7.35;;;6.00;;
55672;SDS011;41554;45.366;20.400;2024-02-04T04:53:07;7.85;;;4.95;;
55672;SDS011;41554;45.366;20.400;2024-02-04T04:55:33;7.22;;;5.78;;
55672;SDS011;41554;45.366;20.400;2024-02-04T04:57:59;12.30;;;7.28;;
55672;SDS011;41554;45.366;20.400;2024-02-04T05:00:25;12.27;;;7.22;;
55672;SDS011;41554;45.366;20.400;2024-02-04T05:02:51;11.05;;;7.57;;
55672;SDS011;41554;45.366;20.400;2024-02-04T05:05:17;10.23;;;6.85;;
55672;SDS011;41554;45.366;20.400;2024-02-04T05:07:44;11.60;;;7.60;;
55672;SDS011;41554;45.366;20.400;2024-02-04T05:10:11;10.65;;;6.05;;
55672;SDS011;41554;45.366;20.400;2024-02-04T05:12:37;11.65;;;7.32;;
55672;SDS011;41554;45.366;20.400;2024-02-04T05:15:04;7.35;;;5.68;;
55672;SDS011;41554;45.366;20.400;2024-02-04T05:17:30;10.30;;;7.00;;
55672;SDS011;41554;45.366;20.400;2024-02-04T05:19:58;15.45;;;7.13;;
55672;SDS011;41554;45.366;20.400;2024-02-04T05:22:24;9.80;;;7.25;;
55672;SDS011;41554;45.366;20.400;2024-02-04T05:24:50;11.23;;;8.23;;
55672;SDS011;41554;45.366;20.400;2024-02-04T05:27:16;13.65;;;9.30;;
55672;SDS011;41554;45.366;20.400;2024-02-04T05:29:42;10.55;;;7.45;;
55672;SDS011;41554;45.366;20.400;2024-02-04T05:32:09;8.23;;;6.63;;
55672;SDS011;41554;45.366;20.400;2024-02-04T05:34:36;11.10;;;7.65;;
55672;SDS011;41554;45.366;20.400;2024-02-04T05:37:02;13.93;;;7.78;;
55672;SDS011;41554;45.366;20.400;2024-02-04T05:39:28;15.85;;;10.02;;
55672;SDS011;41554;45.366;20.400;2024-02-04T05:41:54;11.95;;;8.25;;
55672;SDS011;41554;45.366;20.400;2024-02-04T05:44:20;14.00;;;8.35;;
55672;SDS011;41554;45.366;20.400;2024-02-04T05:46:46;14.98;;;8.13;;
55672;SDS011;41554;45.366;20.400;2024-02-04T05:49:12;13.90;;;8.60;;
55672;SDS011;41554;45.366;20.400;2024-02-04T05:51:39;10.93;;;7.47;;
55672;SDS011;41554;45.366;20.400;2024-02-04T05:54:08;12.77;;;7.53;;
55672;SDS011;41554;45.366;20.400;2024-02-04T05:56:35;10.02;;;7.97;;
55672;SDS011;41554;45.366;20.400;2024-02-04T05:59:01;12.73;;;9.23;;
55672;SDS011;41554;45.366;20.400;2024-02-04T06:01:27;13.88;;;7.75;;
55672;SDS011;41554;45.366;20.400;2024-02-04T06:03:53;14.25;;;9.07;;
55672;SDS011;41554;45.366;20.400;2024-02-04T06:06:19;14.00;;;9.65;;
55672;SDS011;41554;45.366;20.400;2024-02-04T06:08:45;13.07;;;7.75;;
55672;SDS011;41554;45.366;20.400;2024-02-04T06:11:12;11.98;;;9.77;;
55672;SDS011;41554;45.366;20.400;2024-02-04T06:13:40;13.82;;;8.68;;
55672;SDS011;41554;45.366;20.400;2024-02-04T06:16:06;14.13;;;8.98;;
55672;SDS011;41554;45.366;20.400;2024-02-04T06:18:32;13.80;;;9.77;;
55672;SDS011;41554;45.366;20.400;2024-02-04T06:20:59;13.43;;;9.02;;
55672;SDS011;41554;45.366;20.400;2024-02-04T06:23:25;12.85;;;9.45;;
55672;SDS011;41554;45.366;20.400;2024-02-04T06:25:51;11.65;;;9.93;;
55672;SDS011;41554;45.366;20.400;2024-02-04T06:28:17;14.15;;;11.18;;
55672;SDS011;41554;45.366;20.400;2024-02-04T06:30:43;16.63;;;12.98;;
55672;SDS011;41554;45.366;20.400;2024-02-04T06:33:09;24.30;;;12.63;;
55672;SDS011;41554;45.366;20.400;2024-02-04T06:35:35;13.27;;;10.48;;
55672;SDS011;41554;45.366;20.400;2024-02-04T06:38:02;17.40;;;10.18;;
55672;SDS011;41554;45.366;20.400;2024-02-04T06:40:28;12.80;;;9.20;;
55672;SDS011;41554;45.366;20.400;2024-02-04T06:42:54;17.50;;;9.73;;
55672;SDS011;41554;45.366;20.400;2024-02-04T06:45:20;16.55;;;11.10;;
55672;SDS011;41554;45.366;20.400;2024-02-04T06:47:46;15.18;;;10.30;;
55672;SDS011;41554;45.366;20.400;2024-02-04T06:50:12;15.98;;;9.27;;
55672;SDS011;41554;45.366;20.400;2024-02-04T06:52:45;10.55;;;7.45;;
55672;SDS011;41554;45.366;20.400;2024-02-04T06:55:11;11.40;;;8.63;;
55672;SDS011;41554;45.366;20.400;2024-02-04T06:57:38;13.77;;;9.38;;
55672;SDS011;41554;45.366;20.400;2024-02-04T07:00:05;12.70;;;9.50;;
55672;SDS011;41554;45.366;20.400;2024-02-04T07:02:33;13.07;;;9.10;;
55672;SDS011;41554;45.366;20.400;2024-02-04T07:04:59;9.75;;;8.50;;
55672;SDS011;41554;45.366;20.400;2024-02-04T07:07:26;14.20;;;8.88;;
55672;SDS011;41554;45.366;20.400;2024-02-04T07:09:52;9.35;;;7.25;;
55672;SDS011;41554;45.366;20.400;2024-02-04T07:12:18;12.43;;;8.57;;
55672;SDS011;41554;45.366;20.400;2024-02-04T07:14:44;12.20;;;8.88;;
55672;SDS011;41554;45.366;20.400;2024-02-04T07:17:10;13.77;;;9.68;;
55672;SDS011;41554;45.366;20.400;2024-02-04T07:19:37;12.52;;;10.52;;
55672;SDS011;41554;45.366;20.400;2024-02-04T07:22:03;16.83;;;11.60;;
55672;SDS011;41554;45.366;20.400;2024-02-04T07:24:29;22.23;;;12.10;;
55672;SDS011;41554;45.366;20.400;2024-02-04T07:26:55;12.98;;;10.68;;
55672;SDS011;41554;45.366;20.400;2024-02-04T07:29:21;15.43;;;11.00;;
55672;SDS011;41554;45.366;20.400;2024-02-04T07:31:47;13.35;;;10.30;;
55672;SDS011;41554;45.366;20.400;2024-02-04T07:34:13;14.77;;;9.98;;
55672;SDS011;41554;45.366;20.400;2024-02-04T07:36:39;20.55;;;10.05;;
55672;SDS011;41554;45.366;20.400;2024-02-04T07:39:06;12.40;;;8.88;;
55672;SDS011;41554;45.366;20.400;2024-02-04T07:41:32;12.52;;;9.52;;
55672;SDS011;41554;45.366;20.400;2024-02-04T07:43:58;14.32;;;10.40;;
55672;SDS011;41554;45.366;20.400;2024-02-04T07:46:24;13.82;;;10.38;;
55672;SDS011;41554;45.366;20.400;2024-02-04T07:48:50;17.45;;;11.18;;
55672;SDS011;41554;45.366;20.400;2024-02-04T07:51:16;13.40;;;10.07;;
55672;SDS011;41554;45.366;20.400;2024-02-04T07:53:42;18.52;;;11.13;;
55672;SDS011;41554;45.366;20.400;2024-02-04T07:56:09;15.13;;;11.73;;
55672;SDS011;41554;45.366;20.400;2024-02-04T07:58:36;16.08;;;10.35;;
55672;SDS011;41554;45.366;20.400;2024-02-04T08:01:02;16.38;;;10.88;;
55672;SDS011;41554;45.366;20.400;2024-02-04T08:03:28;16.10;;;10.88;;
55672;SDS011;41554;45.366;20.400;2024-02-04T08:05:54;15.45;;;10.85;;
55672;SDS011;41554;45.366;20.400;2024-02-04T08:08:20;13.82;;;10.95;;
55672;SDS011;41554;45.366;20.400;2024-02-04T08:10:46;47.75;;;34.35;;
55672;SDS011;41554;45.366;20.400;2024-02-04T08:13:12;30.20;;;19.23;;
55672;SDS011;41554;45.366;20.400;2024-02-04T08:15:39;21.50;;;15.68;;
55672;SDS011;41554;45.366;20.400;2024-02-04T08:18:05;19.17;;;13.93;;
55672;SDS011;41554;45.366;20.400;2024-02-04T08:20:31;21.40;;;14.30;;
55672;SDS011;41554;45.366;20.400;2024-02-04T08:22:57;21.75;;;13.75;;
55672;SDS011;41554;45.366;20.400;2024-02-04T08:25:23;16.48;;;11.93;;
55672;SDS011;41554;45.366;20.400;2024-02-04T08:27:49;17.88;;;13.32;;
55672;SDS011;41554;45.366;20.400;2024-02-04T08:30:15;14.80;;;10.57;;
55672;SDS011;41554;45.366;20.400;2024-02-04T08:32:44;15.18;;;9.63;;
55672;SDS011;41554;45.366;20.400;2024-02-04T08:35:10;18.40;;;11.40;;
55672;SDS011;41554;45.366;20.400;2024-02-04T08:37:36;16.58;;;12.48;;
55672;SDS011;41554;45.366;20.400;2024-02-04T08:40:03;16.45;;;10.20;;
55672;SDS011;41554;45.366;20.400;2024-02-04T08:42:29;17.75;;;12.15;;
55672;SDS011;41554;45.366;20.400;2024-02-04T08:44:55;13.77;;;9.90;;
55672;SDS011;41554;45.366;20.400;2024-02-04T08:47:21;16.05;;;9.05;;
55672;SDS011;41554;45.366;20.400;2024-02-04T08:49:47;9.85;;;8.18;;
55672;SDS011;41554;45.366;20.400;2024-02-04T08:52:13;16.67;;;9.25;;
55672;SDS011;41554;45.366;20.400;2024-02-04T08:54:40;16.08;;;10.18;;
55672;SDS011;41554;45.366;20.400;2024-02-04T08:57:06;12.48;;;8.25;;
55672;SDS011;41554;45.366;20.400;2024-02-04T08:59:32;11.25;;;8.25;;
55672;SDS011;41554;45.366;20.400;2024-02-04T09:01:58;13.63;;;9.52;;
55672;SDS011;41554;45.366;20.400;2024-02-04T09:04:24;12.45;;;8.27;;
55672;SDS011;41554;45.366;20.400;2024-02-04T09:06:50;8.95;;;6.60;;
55672;SDS011;41554;45.366;20.400;2024-02-04T09:09:16;15.73;;;6.47;;
55672;SDS011;41554;45.366;20.400;2024-02-04T09:11:42;11.98;;;6.85;;
55672;SDS011;41554;45.366;20.400;2024-02-04T09:14:08;11.85;;;7.25;;
55672;SDS011;41554;45.366;20.400;2024-02-04T09:16:37;10.35;;;6.03;;
55672;SDS011;41554;45.366;20.400;2024-02-04T09:19:03;7.95;;;6.05;;
55672;SDS011;41554;45.366;20.400;2024-02-04T09:21:29;17.05;;;8.63;;
55672;SDS011;41554;45.366;20.400;2024-02-04T09:23:55;13.65;;;7.43;;
55672;SDS011;41554;45.366;20.400;2024-02-04T09:26:22;25.10;;;12.13;;
55672;SDS011;41554;45.366;20.400;2024-02-04T09:28:50;42.83;;;23.08;;
55672;SDS011;41554;45.366;20.400;2024-02-04T09:31:16;39.67;;;21.38;;
55672;SDS011;41554;45.366;20.400;2024-02-04T09:33:42;71.65;;;38.30;;
55672;SDS011;41554;45.366;20.400;2024-02-04T09:36:09;39.03;;;19.92;;
55672;SDS011;41554;45.366;20.400;2024-02-04T09:38:35;26.10;;;15.15;;
55672;SDS011;41554;45.366;20.400;2024-02-04T09:41:01;31.23;;;17.10;;
55672;SDS011;41554;45.366;20.400;2024-02-04T09:43:31;26.48;;;15.63;;
55672;SDS011;41554;45.366;20.400;2024-02-04T09:45:58;27.38;;;13.25;;
55672;SDS011;41554;45.366;20.400;2024-02-04T09:48:25;10.50;;;7.00;;
55672;SDS011;41554;45.366;20.400;2024-02-04T09:50:52;9.27;;;5.80;;
55672;SDS011;41554;45.366;20.400;2024-02-04T09:53:20;6.75;;;3.83;;
55672;SDS011;41554;45.366;20.400;2024-02-04T09:55:48;10.85;;;4.45;;
55672;SDS011;41554;45.366;20.400;2024-02-04T09:58:15;5.25;;;3.63;;
55672;SDS011;41554;45.366;20.400;2024-02-04T10:00:41;4.55;;;3.20;;
55672;SDS011;41554;45.366;20.400;2024-02-04T10:03:10;6.00;;;3.80;;
55672;SDS011;41554;45.366;20.400;2024-02-04T10:05:36;5.55;;;4.05;;
55672;SDS011;41554;45.366;20.400;2024-02-04T10:08:02;9.00;;;4.35;;
55672;SDS011;41554;45.366;20.400;2024-02-04T10:10:28;9.20;;;4.80;;
55672;SDS011;41554;45.366;20.400;2024-02-04T10:12:55;6.80;;;4.78;;
55672;SDS011;41554;45.366;20.400;2024-02-04T10:15:21;13.05;;;4.90;;
55672;SDS011;41554;45.366;20.400;2024-02-04T10:17:47;5.25;;;4.07;;
55672;SDS011;41554;45.366;20.400;2024-02-04T10:20:14;9.70;;;5.07;;
55672;SDS011;41554;45.366;20.400;2024-02-04T10:22:40;5.78;;;3.42;;
55672;SDS011;41554;45.366;20.400;2024-02-04T10:25:09;4.38;;;2.70;;
55672;SDS011;41554;45.366;20.400;2024-02-04T10:27:40;5.50;;;3.22;;
55672;SDS011;41554;45.366;20.400;2024-02-04T10:30:07;6.10;;;4.05;;
55672;SDS011;41554;45.366;20.400;2024-02-04T10:32:33;2.95;;;2.35;;
55672;SDS011;41554;45.366;20.400;2024-02-04T10:34:59;11.27;;;6.82;;
55672;SDS011;41554;45.366;20.400;2024-02-04T10:37:27;14.57;;;7.82;;
55672;SDS011;41554;45.366;20.400;2024-02-04T10:39:53;11.60;;;5.75;;
55672;SDS011;41554;45.366;20.400;2024-02-04T10:42:21;13.93;;;8.02;;
55672;SDS011;41554;45.366;20.400;2024-02-04T10:44:48;19.60;;;9.18;;
55672;SDS011;41554;45.366;20.400;2024-02-04T10:47:16;34.22;;;19.80;;
55672;SDS011;41554;45.366;20.400;2024-02-04T10:49:45;20.23;;;12.35;;
55672;SDS011;41554;45.366;20.400;2024-02-04T10:52:15;15.13;;;10.73;;
55672;SDS011;41554;45.366;20.400;2024-02-04T10:54:43;56.55;;;30.20;;
55672;SDS011;41554;45.366;20.400;2024-02-04T10:57:12;94.72;;;48.97;;
55672;SDS011;41554;45.366;20.400;2024-02-04T10:59:39;25.83;;;14.47;;
55672;SDS011;41554;45.366;20.400;2024-02-04T11:02:05;18.02;;;11.02;;
55672;SDS011;41554;45.366;20.400;2024-02-04T11:04:32;12.82;;;7.22;;
55672;SDS011;41554;45.366;20.400;2024-02-04T11:06:59;6.93;;;5.28;;
55672;SDS011;41554;45.366;20.400;2024-02-04T11:09:26;8.88;;;6.25;;
55672;SDS011;41554;45.366;20.400;2024-02-04T11:11:53;14.77;;;7.10;;
55672;SDS011;41554;45.366;20.400;2024-02-04T11:14:21;9.57;;;4.28;;
55672;SDS011;41554;45.366;20.400;2024-02-04T11:17:09;9.60;;;4.68;;
55672;SDS011;41554;45.366;20.400;2024-02-04T11:25:18;10.00;;;4.88;;
55672;SDS011;41554;45.366;20.400;2024-02-04T11:27:45;9.02;;;4.45;;
55672;SDS011;41554;45.366;20.400;2024-02-04T11:30:13;6.53;;;4.25;;
55672;SDS011;41554;45.366;20.400;2024-02-04T11:32:40;6.47;;;3.92;;
55672;SDS011;41554;45.366;20.400;2024-02-04T11:35:06;9.98;;;5.45;;
55672;SDS011;41554;45.366;20.400;2024-02-04T11:37:33;7.90;;;4.47;;
55672;SDS011;41554;45.366;20.400;2024-02-04T11:39:59;11.48;;;6.38;;
55672;SDS011;41554;45.366;20.400;2024-02-04T11:42:31;16.55;;;7.88;;
55672;SDS011;41554;45.366;20.400;2024-02-04T11:45:07;13.82;;;8.15;;
55672;SDS011;41554;45.366;20.400;2024-02-04T11:47:34;14.52;;;7.10;;
55672;SDS011;41554;45.366;20.400;2024-02-04T11:50:00;8.70;;;5.75;;
55672;SDS011;41554;45.366;20.400;2024-02-04T11:52:27;15.10;;;7.85;;
55672;SDS011;41554;45.366;20.400;2024-02-04T11:54:53;27.50;;;13.65;;
55672;SDS011;41554;45.366;20.400;2024-02-04T11:57:19;14.13;;;8.23;;
55672;SDS011;41554;45.366;20.400;2024-02-04T11:59:50;9.85;;;5.53;;
55672;SDS011;41554;45.366;20.400;2024-02-04T12:02:16;15.10;;;8.32;;
55672;SDS011;41554;45.366;20.400;2024-02-04T12:04:44;13.18;;;6.57;;
55672;SDS011;41554;45.366;20.400;2024-02-04T12:07:10;10.00;;;5.43;;
55672;SDS011;41554;45.366;20.400;2024-02-04T12:09:36;8.57;;;6.38;;
55672;SDS011;41554;45.366;20.400;2024-02-04T12:12:03;14.13;;;8.52;;
55672;SDS011;41554;45.366;20.400;2024-02-04T12:14:30;18.98;;;10.98;;
55672;SDS011;41554;45.366;20.400;2024-02-04T12:16:56;15.88;;;10.38;;
55672;SDS011;41554;45.366;20.400;2024-02-04T12:19:25;22.13;;;14.32;;
55672;SDS011;41554;45.366;20.400;2024-02-04T12:21:52;15.23;;;8.43;;
55672;SDS011;41554;45.366;20.400;2024-02-04T12:24:20;7.13;;;4.55;;
55672;SDS011;41554;45.366;20.400;2024-02-04T12:26:46;9.70;;;6.03;;
55672;SDS011;41554;45.366;20.400;2024-02-04T12:29:12;10.73;;;5.85;;
55672;SDS011;41554;45.366;20.400;2024-02-04T12:31:39;27.70;;;18.15;;
55672;SDS011;41554;45.366;20.400;2024-02-04T12:34:05;15.35;;;8.60;;
55672;SDS011;41554;45.366;20.400;2024-02-04T12:36:31;14.38;;;9.88;;
55672;SDS011;41554;45.366;20.400;2024-02-04T12:39:01;7.20;;;5.80;;
55672;SDS011;41554;45.366;20.400;2024-02-04T12:41:35;13.23;;;7.15;;
55672;SDS011;41554;45.366;20.400;2024-02-04T12:44:01;9.90;;;5.50;;
55672;SDS011;41554;45.366;20.400;2024-02-04T12:46:28;9.98;;;7.90;;
55672;SDS011;41554;45.366;20.400;2024-02-04T12:48:55;23.73;;;11.23;;
55672;SDS011;41554;45.366;20.400;2024-02-04T12:51:28;12.40;;;6.90;;
55672;SDS011;41554;45.366;20.400;2024-02-04T12:54:04;8.57;;;5.95;;
55672;SDS011;41554;45.366;20.400;2024-02-04T12:56:40;7.95;;;4.13;;
55672;SDS011;41554;45.366;20.400;2024-02-04T12:59:08;5.60;;;4.18;;
55672;SDS011;41554;45.366;20.400;2024-02-04T13:01:35;7.45;;;4.68;;
55672;SDS011;41554;45.366;20.400;2024-02-04T13:04:01;9.63;;;5.88;;
55672;SDS011;41554;45.366;20.400;2024-02-04T13:06:27;6.32;;;4.80;;
55672;SDS011;41554;45.366;20.400;2024-02-04T13:08:56;18.33;;;8.27;;
55672;SDS011;41554;45.366;20.400;2024-02-04T13:11:24;15.20;;;7.90;;
55672;SDS011;41554;45.366;20.400;2024-02-04T13:13:50;8.55;;;5.40;;
55672;SDS011;41554;45.366;20.400;2024-02-04T13:16:16;11.43;;;6.38;;
55672;SDS011;41554;45.366;20.400;2024-02-04T13:18:44;10.65;;;5.70;;
55672;SDS011;41554;45.366;20.400;2024-02-04T13:21:10;6.25;;;4.50;;
55672;SDS011;41554;45.366;20.400;2024-02-04T13:23:36;9.20;;;5.53;;
55672;SDS011;41554;45.366;20.400;2024-02-04T13:26:02;8.20;;;3.83;;
55672;SDS011;41554;45.366;20.400;2024-02-04T13:28:29;9.68;;;5.20;;
55672;SDS011;41554;45.366;20.400;2024-02-04T13:30:55;5.05;;;3.17;;
55672;SDS011;41554;45.366;20.400;2024-02-04T13:33:21;5.20;;;3.13;;
55672;SDS011;41554;45.366;20.400;2024-02-04T13:35:47;6.35;;;3.75;;
55672;SDS011;41554;45.366;20.400;2024-02-04T13:38:14;6.13;;;3.30;;
55672;SDS011;41554;45.366;20.400;2024-02-04T13:40:40;5.53;;;3.60;;
55672;SDS011;41554;45.366;20.400;2024-02-04T13:43:06;4.30;;;2.40;;
55672;SDS011;41554;45.366;20.400;2024-02-04T13:45:32;3.92;;;2.50;;
55672;SDS011;41554;45.366;20.400;2024-02-04T13:47:58;4.80;;;2.67;;
55672;SDS011;41554;45.366;20.400;2024-02-04T13:50:24;3.00;;;2.03;;
55672;SDS011;41554;45.366;20.400;2024-02-04T13:52:50;2.78;;;2.05;;
55672;SDS011;41554;45.366;20.400;2024-02-04T13:55:16;1.25;;;1.05;;
55672;SDS011;41554;45.366;20.400;2024-02-04T13:57:42;2.60;;;1.90;;
55672;SDS011;41554;45.366;20.400;2024-02-04T14:00:08;2.17;;;1.80;;
55672;SDS011;41554;45.366;20.400;2024-02-04T14:02:35;2.88;;;2.28;;
55672;SDS011;41554;45.366;20.400;2024-02-04T14:05:03;1.50;;;1.35;;
55672;SDS011;41554;45.366;20.400;2024-02-04T14:07:29;5.65;;;2.00;;
55672;SDS011;41554;45.366;20.400;2024-02-04T14:09:55;6.95;;;1.88;;
55672;SDS011;41554;45.366;20.400;2024-02-04T14:12:21;8.68;;;3.03;;
55672;SDS011;41554;45.366;20.400;2024-02-04T14:14:48;4.50;;;3.00;;
55672;SDS011;41554;45.366;20.400;2024-02-04T14:17:14;5.95;;;2.53;;
55672;SDS011;41554;45.366;20.400;2024-02-04T14:19:40;4.93;;;2.25;;
55672;SDS011;41554;45.366;20.400;2024-02-04T14:22:06;3.13;;;2.58;;
55672;SDS011;41554;45.366;20.400;2024-02-04T14:24:32;3.45;;;2.33;;
55672;SDS011;41554;45.366;20.400;2024-02-04T14:26:59;3.25;;;2.45;;
55672;SDS011;41554;45.366;20.400;2024-02-04T14:29:25;4.78;;;2.75;;